sensor_id;sensor_type;location;lat;lon;timestamp;pressure;altitude;pressure_sealevel;temperature;humidity
50368;BME280;36281;34.132;-118.018;2023-04-26T00:01:14;99670.88;;;24.50;48.26
50368;BME280;36281;34.132;-118.018;2023-04-26T00:03:44;99668.31;;;24.45;48.10
50368;BME280;36281;34.132;-118.018;2023-04-26T00:06:15;99671.13;;;24.40;48.11
50368;BME280;36281;34.132;-118.018;2023-04-26T00:08:44;99669.53;;;24.39;48.04
50368;BME280;36281;34.132;-118.018;2023-04-26T00:11:13;99668.34;;;24.31;48.02
50368;BME280;36281;34.132;-118.018;2023-04-26T00:13:42;99668.16;;;24.28;48.26
50368;BME280;36281;34.132;-118.018;2023-04-26T00:16:13;99679.78;;;24.28;48.69
50368;BME280;36281;34.132;-118.018;2023-04-26T00:18:42;99677.56;;;24.30;48.95
50368;BME280;36281;34.132;-118.018;2023-04-26T00:21:12;99675.66;;;24.31;48.74
50368;BME280;36281;34.132;-118.018;2023-04-26T00:23:42;99680.28;;;24.30;48.89
50368;BME280;36281;34.132;-118.018;2023-04-26T00:26:11;99680.59;;;24.29;48.92
50368;BME280;36281;34.132;-118.018;2023-04-26T00:28:40;99668.41;;;24.17;48.54
50368;BME280;36281;34.132;-118.018;2023-04-26T00:31:13;99654.28;;;23.84;48.58
50368;BME280;36281;34.132;-118.018;2023-04-26T00:33:43;99684.28;;;23.96;49.18
50368;BME280;36281;34.132;-118.018;2023-04-26T00:36:12;99680.72;;;23.87;49.23
50368;BME280;36281;34.132;-118.018;2023-04-26T00:38:44;99684.47;;;23.78;49.35
50368;BME280;36281;34.132;-118.018;2023-04-26T00:41:13;99689.56;;;23.65;49.52
50368;BME280;36281;34.132;-118.018;2023-04-26T00:43:42;99690.25;;;23.57;50.10
50368;BME280;36281;34.132;-118.018;2023-04-26T00:46:12;99696.97;;;23.46;50.15
50368;BME280;36281;34.132;-118.018;2023-04-26T00:48:41;99681.84;;;23.31;50.25
50368;BME280;36281;34.132;-118.018;2023-04-26T00:51:11;99702.38;;;23.32;50.66
50368;BME280;36281;34.132;-118.018;2023-04-26T00:53:41;99701.66;;;23.27;50.85
50368;BME280;36281;34.132;-118.018;2023-04-26T00:56:12;99701.75;;;23.21;50.83
50368;BME280;36281;34.132;-118.018;2023-04-26T00:58:42;99702.97;;;23.15;51.21
50368;BME280;36281;34.132;-118.018;2023-04-26T01:01:11;99698.06;;;23.04;50.97
50368;BME280;36281;34.132;-118.018;2023-04-26T01:03:40;99695.53;;;22.93;51.39
50368;BME280;36281;34.132;-118.018;2023-04-26T01:06:12;99697.06;;;22.81;51.93
50368;BME280;36281;34.132;-118.018;2023-04-26T01:08:41;99709.06;;;22.75;51.94
50368;BME280;36281;34.132;-118.018;2023-04-26T01:11:11;99716.44;;;22.69;52.25
50368;BME280;36281;34.132;-118.018;2023-04-26T01:13:41;99718.63;;;22.67;52.51
50368;BME280;36281;34.132;-118.018;2023-04-26T01:16:10;99712.03;;;22.59;52.44
50368;BME280;36281;34.132;-118.018;2023-04-26T01:18:41;99714.81;;;22.54;52.76
50368;BME280;36281;34.132;-118.018;2023-04-26T01:21:11;99719.75;;;22.47;53.04
50368;BME280;36281;34.132;-118.018;2023-04-26T01:23:42;99729.25;;;22.44;53.35
50368;BME280;36281;34.132;-118.018;2023-04-26T01:26:11;99732.34;;;22.38;52.98
50368;BME280;36281;34.132;-118.018;2023-04-26T01:28:40;99730.78;;;22.32;53.72
50368;BME280;36281;34.132;-118.018;2023-04-26T01:31:10;99733.84;;;22.25;54.05
50368;BME280;36281;34.132;-118.018;2023-04-26T01:33:39;99737.44;;;22.21;54.35
50368;BME280;36281;34.132;-118.018;2023-04-26T01:36:08;99743.69;;;22.16;54.02
50368;BME280;36281;34.132;-118.018;2023-04-26T01:38:40;99736.50;;;22.06;54.27
50368;BME280;36281;34.132;-118.018;2023-04-26T01:41:10;99744.75;;;21.96;54.59
50368;BME280;36281;34.132;-118.018;2023-04-26T01:43:39;99748.59;;;21.90;54.68
50368;BME280;36281;34.132;-118.018;2023-04-26T01:46:08;99747.34;;;21.82;54.87
50368;BME280;36281;34.132;-118.018;2023-04-26T01:48:38;99750.09;;;21.77;55.17
50368;BME280;36281;34.132;-118.018;2023-04-26T01:51:07;99753.66;;;21.73;55.29
50368;BME280;36281;34.132;-118.018;2023-04-26T01:53:36;99751.88;;;21.63;55.58
50368;BME280;36281;34.132;-118.018;2023-04-26T01:56:06;99750.94;;;21.54;55.29
50368;BME280;36281;34.132;-118.018;2023-04-26T01:58:36;99756.94;;;21.46;55.40
50368;BME280;36281;34.132;-118.018;2023-04-26T02:01:06;99756.50;;;21.38;55.93
50368;BME280;36281;34.132;-118.018;2023-04-26T02:03:36;99757.34;;;21.34;56.30
50368;BME280;36281;34.132;-118.018;2023-04-26T02:06:05;99761.13;;;21.28;56.14
50368;BME280;36281;34.132;-118.018;2023-04-26T02:08:35;99759.06;;;21.20;56.00
50368;BME280;36281;34.132;-118.018;2023-04-26T02:11:04;99763.72;;;21.14;56.31
50368;BME280;36281;34.132;-118.018;2023-04-26T02:13:33;99764.81;;;21.08;56.39
50368;BME280;36281;34.132;-118.018;2023-04-26T02:16:04;99768.94;;;21.00;56.51
50368;BME280;36281;34.132;-118.018;2023-04-26T02:18:36;99764.69;;;20.94;56.65
50368;BME280;36281;34.132;-118.018;2023-04-26T02:21:07;99766.88;;;20.87;56.91
50368;BME280;36281;34.132;-118.018;2023-04-26T02:23:36;99776.09;;;20.81;57.09
50368;BME280;36281;34.132;-118.018;2023-04-26T02:26:05;99767.06;;;20.67;56.85
50368;BME280;36281;34.132;-118.018;2023-04-26T02:28:34;99771.97;;;20.59;57.21
50368;BME280;36281;34.132;-118.018;2023-04-26T02:31:05;99789.75;;;20.55;57.46
50368;BME280;36281;34.132;-118.018;2023-04-26T02:33:35;99790.31;;;20.47;57.68
50368;BME280;36281;34.132;-118.018;2023-04-26T02:36:04;99796.53;;;20.37;57.98
50368;BME280;36281;34.132;-118.018;2023-04-26T02:38:34;99800.34;;;20.31;58.30
50368;BME280;36281;34.132;-118.018;2023-04-26T02:41:03;99800.09;;;20.23;58.58
50368;BME280;36281;34.132;-118.018;2023-04-26T02:43:33;99809.28;;;20.17;58.64
50368;BME280;36281;34.132;-118.018;2023-04-26T02:46:02;99813.09;;;20.10;58.94
50368;BME280;36281;34.132;-118.018;2023-04-26T02:48:35;99816.06;;;20.04;58.75
50368;BME280;36281;34.132;-118.018;2023-04-26T02:51:05;99820.13;;;19.96;59.13
50368;BME280;36281;34.132;-118.018;2023-04-26T02:53:34;99817.19;;;19.87;59.19
50368;BME280;36281;34.132;-118.018;2023-04-26T02:56:03;99823.97;;;19.80;59.37
50368;BME280;36281;34.132;-118.018;2023-04-26T02:58:33;99831.47;;;19.73;59.51
50368;BME280;36281;34.132;-118.018;2023-04-26T03:01:02;99827.75;;;19.63;59.65
50368;BME280;36281;34.132;-118.018;2023-04-26T03:03:31;99835.25;;;19.56;60.07
50368;BME280;36281;34.132;-118.018;2023-04-26T03:06:03;99819.16;;;19.41;60.48
50368;BME280;36281;34.132;-118.018;2023-04-26T03:08:32;99829.34;;;19.44;60.17
50368;BME280;36281;34.132;-118.018;2023-04-26T03:11:04;99837.41;;;19.39;60.32
50368;BME280;36281;34.132;-118.018;2023-04-26T03:13:34;99846.84;;;19.31;60.56
50368;BME280;36281;34.132;-118.018;2023-04-26T03:16:03;99846.03;;;19.26;60.87
50368;BME280;36281;34.132;-118.018;2023-04-26T03:18:32;99853.53;;;19.19;61.25
50368;BME280;36281;34.132;-118.018;2023-04-26T03:21:03;99856.78;;;19.10;61.70
50368;BME280;36281;34.132;-118.018;2023-04-26T03:23:32;99865.34;;;19.07;61.84
50368;BME280;36281;34.132;-118.018;2023-04-26T03:26:01;99875.28;;;19.02;62.02
50368;BME280;36281;34.132;-118.018;2023-04-26T03:28:31;99877.16;;;18.96;62.17
50368;BME280;36281;34.132;-118.018;2023-04-26T03:31:00;99876.34;;;18.91;62.18
50368;BME280;36281;34.132;-118.018;2023-04-26T03:33:29;99878.75;;;18.87;62.25
50368;BME280;36281;34.132;-118.018;2023-04-26T03:35:59;99885.44;;;18.84;62.53
50368;BME280;36281;34.132;-118.018;2023-04-26T03:38:29;99881.44;;;18.82;62.50
50368;BME280;36281;34.132;-118.018;2023-04-26T03:40:59;99890.00;;;18.79;62.70
50368;BME280;36281;34.132;-118.018;2023-04-26T03:43:28;99885.66;;;18.68;62.84
50368;BME280;36281;34.132;-118.018;2023-04-26T03:45:57;99897.22;;;18.73;63.10
50368;BME280;36281;34.132;-118.018;2023-04-26T03:48:27;99897.97;;;18.64;63.17
50368;BME280;36281;34.132;-118.018;2023-04-26T03:50:56;99897.16;;;18.58;63.43
50368;BME280;36281;34.132;-118.018;2023-04-26T03:53:25;99896.88;;;18.54;63.63
50368;BME280;36281;34.132;-118.018;2023-04-26T03:55:56;99903.28;;;18.48;63.95
50368;BME280;36281;34.132;-118.018;2023-04-26T03:58:25;99906.53;;;18.45;64.12
50368;BME280;36281;34.132;-118.018;2023-04-26T04:00:56;99910.25;;;18.44;64.34
50368;BME280;36281;34.132;-118.018;2023-04-26T04:03:25;99902.19;;;18.44;64.34
50368;BME280;36281;34.132;-118.018;2023-04-26T04:05:57;99921.25;;;18.43;64.37
50368;BME280;36281;34.132;-118.018;2023-04-26T04:08:26;99924.44;;;18.40;64.52
50368;BME280;36281;34.132;-118.018;2023-04-26T04:10:57;99932.22;;;18.36;64.63
50368;BME280;36281;34.132;-118.018;2023-04-26T04:13:26;99926.06;;;18.36;65.08
50368;BME280;36281;34.132;-118.018;2023-04-26T04:15:55;99926.84;;;18.31;65.26
50368;BME280;36281;34.132;-118.018;2023-04-26T04:18:24;99941.56;;;18.28;65.31
50368;BME280;36281;34.132;-118.018;2023-04-26T04:20:54;99938.56;;;18.25;65.41
50368;BME280;36281;34.132;-118.018;2023-04-26T04:23:23;99938.53;;;18.20;65.48
50368;BME280;36281;34.132;-118.018;2023-04-26T04:25:53;99926.72;;;18.11;65.47
50368;BME280;36281;34.132;-118.018;2023-04-26T04:28:23;99937.47;;;18.16;65.66
50368;BME280;36281;34.132;-118.018;2023-04-26T04:30:52;99947.09;;;18.12;65.61
50368;BME280;36281;34.132;-118.018;2023-04-26T04:33:22;99943.00;;;18.04;65.58
50368;BME280;36281;34.132;-118.018;2023-04-26T04:35:51;99944.34;;;18.01;65.72
50368;BME280;36281;34.132;-118.018;2023-04-26T04:38:20;99952.91;;;17.98;65.62
50368;BME280;36281;34.132;-118.018;2023-04-26T04:40:49;99956.34;;;17.94;65.98
50368;BME280;36281;34.132;-118.018;2023-04-26T04:43:19;99958.19;;;17.88;65.98
50368;BME280;36281;34.132;-118.018;2023-04-26T04:45:50;99958.69;;;17.85;66.31
50368;BME280;36281;34.132;-118.018;2023-04-26T04:48:19;99961.63;;;17.83;66.39
50368;BME280;36281;34.132;-118.018;2023-04-26T04:50:49;99957.06;;;17.79;66.64
50368;BME280;36281;34.132;-118.018;2023-04-26T04:53:18;99961.06;;;17.76;66.68
50368;BME280;36281;34.132;-118.018;2023-04-26T04:55:47;99965.63;;;17.76;66.66
50368;BME280;36281;34.132;-118.018;2023-04-26T04:58:16;99970.41;;;17.74;66.53
50368;BME280;36281;34.132;-118.018;2023-04-26T05:00:45;99971.72;;;17.71;66.78
50368;BME280;36281;34.132;-118.018;2023-04-26T05:03:16;99981.06;;;17.69;66.71
50368;BME280;36281;34.132;-118.018;2023-04-26T05:05:46;99973.53;;;17.66;66.83
50368;BME280;36281;34.132;-118.018;2023-04-26T05:08:15;99975.34;;;17.60;66.87
50368;BME280;36281;34.132;-118.018;2023-04-26T05:10:45;99969.72;;;17.56;67.21
50368;BME280;36281;34.132;-118.018;2023-04-26T05:13:14;99979.84;;;17.54;67.67
50368;BME280;36281;34.132;-118.018;2023-04-26T05:15:43;99924.44;;;17.23;67.60
50368;BME280;36281;34.132;-118.018;2023-04-26T05:18:12;99979.28;;;17.47;67.89
50368;BME280;36281;34.132;-118.018;2023-04-26T05:20:43;99973.81;;;17.37;68.46
50368;BME280;36281;34.132;-118.018;2023-04-26T05:23:12;99968.41;;;17.32;68.85
50368;BME280;36281;34.132;-118.018;2023-04-26T05:25:41;99970.19;;;17.21;69.28
50368;BME280;36281;34.132;-118.018;2023-04-26T05:28:10;99962.97;;;17.22;69.65
50368;BME280;36281;34.132;-118.018;2023-04-26T05:30:41;99965.59;;;17.17;70.01
50368;BME280;36281;34.132;-118.018;2023-04-26T05:33:10;99976.25;;;17.12;70.00
50368;BME280;36281;34.132;-118.018;2023-04-26T05:35:42;99968.44;;;17.10;70.26
50368;BME280;36281;34.132;-118.018;2023-04-26T05:38:11;99968.97;;;17.07;70.45
50368;BME280;36281;34.132;-118.018;2023-04-26T05:40:40;99967.84;;;17.03;70.48
50368;BME280;36281;34.132;-118.018;2023-04-26T05:43:09;99966.47;;;17.00;70.69
50368;BME280;36281;34.132;-118.018;2023-04-26T05:45:39;99957.38;;;16.96;70.79
50368;BME280;36281;34.132;-118.018;2023-04-26T05:48:08;99973.41;;;16.96;71.21
50368;BME280;36281;34.132;-118.018;2023-04-26T05:50:37;99968.56;;;16.93;71.15
50368;BME280;36281;34.132;-118.018;2023-04-26T05:53:08;99968.25;;;16.90;71.21
50368;BME280;36281;34.132;-118.018;2023-04-26T05:55:37;99970.38;;;16.88;71.41
50368;BME280;36281;34.132;-118.018;2023-04-26T05:58:07;99967.13;;;16.86;71.63
50368;BME280;36281;34.132;-118.018;2023-04-26T06:00:36;99971.91;;;16.84;71.74
50368;BME280;36281;34.132;-118.018;2023-04-26T06:03:06;99968.13;;;16.79;71.86
50368;BME280;36281;34.132;-118.018;2023-04-26T06:05:36;99962.41;;;16.71;71.91
50368;BME280;36281;34.132;-118.018;2023-04-26T06:08:10;99972.88;;;16.72;72.34
50368;BME280;36281;34.132;-118.018;2023-04-26T06:10:39;99974.38;;;16.68;72.20
50368;BME280;36281;34.132;-118.018;2023-04-26T06:13:08;99975.69;;;16.66;72.29
50368;BME280;36281;34.132;-118.018;2023-04-26T06:15:37;99975.63;;;16.61;72.74
50368;BME280;36281;34.132;-118.018;2023-04-26T06:18:06;99982.53;;;16.57;72.77
50368;BME280;36281;34.132;-118.018;2023-04-26T06:20:36;99981.16;;;16.54;73.07
50368;BME280;36281;34.132;-118.018;2023-04-26T06:23:05;99989.91;;;16.49;73.07
50368;BME280;36281;34.132;-118.018;2023-04-26T06:25:36;99996.31;;;16.48;73.30
50368;BME280;36281;34.132;-118.018;2023-04-26T06:28:05;99997.38;;;16.47;73.48
50368;BME280;36281;34.132;-118.018;2023-04-26T06:30:34;99973.94;;;16.33;73.40
50368;BME280;36281;34.132;-118.018;2023-04-26T06:33:03;99986.03;;;16.40;73.87
50368;BME280;36281;34.132;-118.018;2023-04-26T06:35:34;99998.88;;;16.38;73.86
50368;BME280;36281;34.132;-118.018;2023-04-26T06:38:06;99996.66;;;16.35;74.08
50368;BME280;36281;34.132;-118.018;2023-04-26T06:40:38;99992.91;;;16.31;74.19
50368;BME280;36281;34.132;-118.018;2023-04-26T06:43:07;99994.19;;;16.28;74.31
50368;BME280;36281;34.132;-118.018;2023-04-26T06:45:36;99988.75;;;16.23;74.31
50368;BME280;36281;34.132;-118.018;2023-04-26T06:48:07;99992.16;;;16.19;74.34
50368;BME280;36281;34.132;-118.018;2023-04-26T06:50:37;99996.97;;;16.17;74.62
50368;BME280;36281;34.132;-118.018;2023-04-26T06:53:08;99995.56;;;16.14;74.93
50368;BME280;36281;34.132;-118.018;2023-04-26T06:55:39;100001.56;;;16.05;75.47
50368;BME280;36281;34.132;-118.018;2023-04-26T06:58:08;100003.63;;;15.97;75.85
50368;BME280;36281;34.132;-118.018;2023-04-26T07:00:38;99999.25;;;15.91;76.31
50368;BME280;36281;34.132;-118.018;2023-04-26T07:03:07;99991.13;;;15.86;76.65
50368;BME280;36281;34.132;-118.018;2023-04-26T07:05:38;99996.47;;;15.86;76.46
50368;BME280;36281;34.132;-118.018;2023-04-26T07:08:07;100004.75;;;15.85;76.40
50368;BME280;36281;34.132;-118.018;2023-04-26T07:10:36;100006.03;;;15.82;76.60
50368;BME280;36281;34.132;-118.018;2023-04-26T07:13:06;99998.84;;;15.83;76.67
50368;BME280;36281;34.132;-118.018;2023-04-26T07:15:36;100002.56;;;15.82;76.65
50368;BME280;36281;34.132;-118.018;2023-04-26T07:18:05;99997.44;;;15.80;76.60
50368;BME280;36281;34.132;-118.018;2023-04-26T07:20:34;99995.50;;;15.75;76.16
50368;BME280;36281;34.132;-118.018;2023-04-26T07:23:03;99997.38;;;15.75;76.16
50368;BME280;36281;34.132;-118.018;2023-04-26T07:25:33;99996.81;;;15.73;76.23
50368;BME280;36281;34.132;-118.018;2023-04-26T07:28:07;100000.22;;;15.68;76.27
50368;BME280;36281;34.132;-118.018;2023-04-26T07:30:36;100003.59;;;15.64;76.37
50368;BME280;36281;34.132;-118.018;2023-04-26T07:33:11;99997.09;;;15.60;76.60
50368;BME280;36281;34.132;-118.018;2023-04-26T07:35:41;100002.34;;;15.55;77.24
50368;BME280;36281;34.132;-118.018;2023-04-26T07:38:10;99964.28;;;15.31;77.45
50368;BME280;36281;34.132;-118.018;2023-04-26T07:40:41;100006.78;;;15.49;77.54
50368;BME280;36281;34.132;-118.018;2023-04-26T07:43:12;100003.88;;;15.50;77.74
50368;BME280;36281;34.132;-118.018;2023-04-26T07:45:43;100007.84;;;15.48;77.88
50368;BME280;36281;34.132;-118.018;2023-04-26T07:48:12;99991.22;;;15.29;77.61
50368;BME280;36281;34.132;-118.018;2023-04-26T07:50:41;100012.91;;;15.33;77.95
50368;BME280;36281;34.132;-118.018;2023-04-26T07:53:13;100013.72;;;15.33;78.04
50368;BME280;36281;34.132;-118.018;2023-04-26T07:55:42;100013.97;;;15.32;78.02
50368;BME280;36281;34.132;-118.018;2023-04-26T07:58:13;100010.44;;;15.31;78.12
50368;BME280;36281;34.132;-118.018;2023-04-26T08:00:42;100015.38;;;15.22;78.43
50368;BME280;36281;34.132;-118.018;2023-04-26T08:03:14;100014.25;;;15.18;78.72
50368;BME280;36281;34.132;-118.018;2023-04-26T08:05:44;100007.19;;;15.12;79.51
50368;BME280;36281;34.132;-118.018;2023-04-26T08:08:14;100001.50;;;15.09;79.41
50368;BME280;36281;34.132;-118.018;2023-04-26T08:10:45;100011.72;;;15.12;79.44
50368;BME280;36281;34.132;-118.018;2023-04-26T08:13:16;100006.84;;;15.09;79.41
50368;BME280;36281;34.132;-118.018;2023-04-26T08:15:45;100016.84;;;15.02;79.65
50368;BME280;36281;34.132;-118.018;2023-04-26T08:18:14;100010.38;;;14.97;79.74
50368;BME280;36281;34.132;-118.018;2023-04-26T08:20:43;100009.56;;;14.97;79.94
50368;BME280;36281;34.132;-118.018;2023-04-26T08:23:12;100015.72;;;14.97;79.99
50368;BME280;36281;34.132;-118.018;2023-04-26T08:25:41;100009.78;;;14.95;79.87
50368;BME280;36281;34.132;-118.018;2023-04-26T08:28:13;100012.44;;;14.95;79.64
50368;BME280;36281;34.132;-118.018;2023-04-26T08:30:43;100010.50;;;14.91;79.52
50368;BME280;36281;34.132;-118.018;2023-04-26T08:33:12;100009.69;;;14.90;79.33
50368;BME280;36281;34.132;-118.018;2023-04-26T08:35:42;100010.28;;;14.81;79.61
50368;BME280;36281;34.132;-118.018;2023-04-26T08:38:11;100006.25;;;14.78;79.93
50368;BME280;36281;34.132;-118.018;2023-04-26T08:40:41;100005.66;;;14.76;80.51
50368;BME280;36281;34.132;-118.018;2023-04-26T08:43:14;100011.22;;;14.74;80.44
50368;BME280;36281;34.132;-118.018;2023-04-26T08:45:46;100004.44;;;14.67;80.85
50368;BME280;36281;34.132;-118.018;2023-04-26T08:48:17;100003.94;;;14.70;80.69
50368;BME280;36281;34.132;-118.018;2023-04-26T08:50:46;99992.72;;;14.68;81.15
50368;BME280;36281;34.132;-118.018;2023-04-26T08:53:16;99998.63;;;14.58;81.22
50368;BME280;36281;34.132;-118.018;2023-04-26T08:55:49;100008.16;;;14.54;81.54
50368;BME280;36281;34.132;-118.018;2023-04-26T08:58:18;99995.53;;;14.50;81.20
50368;BME280;36281;34.132;-118.018;2023-04-26T09:00:49;99993.66;;;14.50;81.70
50368;BME280;36281;34.132;-118.018;2023-04-26T09:03:18;99992.41;;;14.53;81.64
50368;BME280;36281;34.132;-118.018;2023-04-26T09:05:51;99993.28;;;14.46;81.32
50368;BME280;36281;34.132;-118.018;2023-04-26T09:08:21;99990.06;;;14.44;81.39
50368;BME280;36281;34.132;-118.018;2023-04-26T09:10:50;99983.66;;;14.45;81.51
50368;BME280;36281;34.132;-118.018;2023-04-26T09:13:19;99977.88;;;14.37;81.59
50368;BME280;36281;34.132;-118.018;2023-04-26T09:15:50;99987.03;;;14.41;81.56
50368;BME280;36281;34.132;-118.018;2023-04-26T09:18:20;99979.84;;;14.41;81.54
50368;BME280;36281;34.132;-118.018;2023-04-26T09:21:02;99975.56;;;14.40;81.79
50368;BME280;36281;34.132;-118.018;2023-04-26T09:23:32;99969.44;;;14.40;81.82
50368;BME280;36281;34.132;-118.018;2023-04-26T09:26:17;99977.88;;;14.37;81.69
50368;BME280;36281;34.132;-118.018;2023-04-26T09:28:47;99974.53;;;14.30;81.76
50368;BME280;36281;34.132;-118.018;2023-04-26T09:31:36;99988.22;;;14.33;81.81
50368;BME280;36281;34.132;-118.018;2023-04-26T09:34:09;99986.59;;;14.32;81.93
50368;BME280;36281;34.132;-118.018;2023-04-26T09:36:49;99992.03;;;14.26;81.95
50368;BME280;36281;34.132;-118.018;2023-04-26T09:39:32;99997.94;;;14.16;82.28
50368;BME280;36281;34.132;-118.018;2023-04-26T09:42:01;99990.88;;;14.10;82.87
50368;BME280;36281;34.132;-118.018;2023-04-26T09:44:31;99990.88;;;14.10;83.10
50368;BME280;36281;34.132;-118.018;2023-04-26T09:47:03;99990.75;;;14.05;83.11
50368;BME280;36281;34.132;-118.018;2023-04-26T09:49:42;99992.25;;;14.01;82.86
50368;BME280;36281;34.132;-118.018;2023-04-26T09:52:17;99997.94;;;14.04;83.13
50368;BME280;36281;34.132;-118.018;2023-04-26T09:54:47;99991.22;;;14.02;83.13
50368;BME280;36281;34.132;-118.018;2023-04-26T09:57:18;99996.53;;;14.02;83.01
50368;BME280;36281;34.132;-118.018;2023-04-26T09:59:48;100001.88;;;14.02;82.98
50368;BME280;36281;34.132;-118.018;2023-04-26T10:02:23;100006.25;;;13.96;82.52
50368;BME280;36281;34.132;-118.018;2023-04-26T10:04:54;99999.09;;;13.96;82.68
50368;BME280;36281;34.132;-118.018;2023-04-26T10:07:24;99996.28;;;13.91;82.86
50368;BME280;36281;34.132;-118.018;2023-04-26T10:09:54;99997.22;;;13.85;82.87
50368;BME280;36281;34.132;-118.018;2023-04-26T10:12:24;99995.84;;;13.83;83.18
50368;BME280;36281;34.132;-118.018;2023-04-26T10:14:55;99998.97;;;13.80;83.02
50368;BME280;36281;34.132;-118.018;2023-04-26T10:17:26;99999.31;;;13.83;82.86
50368;BME280;36281;34.132;-118.018;2023-04-26T10:19:57;99993.41;;;13.81;82.95
50368;BME280;36281;34.132;-118.018;2023-04-26T10:22:31;99996.53;;;13.78;83.00
50368;BME280;36281;34.132;-118.018;2023-04-26T10:25:01;100002.88;;;13.77;83.13
50368;BME280;36281;34.132;-118.018;2023-04-26T10:27:50;100003.13;;;13.76;83.01
50368;BME280;36281;34.132;-118.018;2023-04-26T10:30:20;100004.41;;;13.73;83.10
50368;BME280;36281;34.132;-118.018;2023-04-26T10:33:21;100005.41;;;13.72;83.20
50368;BME280;36281;34.132;-118.018;2023-04-26T10:36:10;100004.84;;;13.70;83.47
50368;BME280;36281;34.132;-118.018;2023-04-26T10:39:17;100005.41;;;13.72;83.61
50368;BME280;36281;34.132;-118.018;2023-04-26T10:41:50;100002.41;;;13.68;83.67
50368;BME280;36281;34.132;-118.018;2023-04-26T10:44:40;100002.50;;;13.62;83.71
50368;BME280;36281;34.132;-118.018;2023-04-26T10:47:25;100004.59;;;13.60;83.74
50368;BME280;36281;34.132;-118.018;2023-04-26T10:50:03;99993.81;;;13.55;84.43
50368;BME280;36281;34.132;-118.018;2023-04-26T10:52:35;100003.41;;;13.56;84.44
50368;BME280;36281;34.132;-118.018;2023-04-26T10:55:04;99990.13;;;13.56;84.58
50368;BME280;36281;34.132;-118.018;2023-04-26T10:57:50;100002.25;;;13.52;84.52
50368;BME280;36281;34.132;-118.018;2023-04-26T11:00:28;99992.50;;;13.45;84.90
50368;BME280;36281;34.132;-118.018;2023-04-26T11:03:10;99992.50;;;13.45;84.55
50368;BME280;36281;34.132;-118.018;2023-04-26T11:05:51;99995.41;;;13.44;84.19
50368;BME280;36281;34.132;-118.018;2023-04-26T11:08:24;99992.97;;;13.42;83.79
50368;BME280;36281;34.132;-118.018;2023-04-26T11:11:06;99990.91;;;13.44;84.20
50368;BME280;36281;34.132;-118.018;2023-04-26T11:13:39;99972.47;;;13.31;84.13
50368;BME280;36281;34.132;-118.018;2023-04-26T11:16:09;100001.41;;;13.39;83.93
50368;BME280;36281;34.132;-118.018;2023-04-26T11:18:40;99999.56;;;13.40;83.67
50368;BME280;36281;34.132;-118.018;2023-04-26T11:21:14;99991.81;;;13.38;83.98
50368;BME280;36281;34.132;-118.018;2023-04-26T11:23:53;99991.00;;;13.38;83.89
50368;BME280;36281;34.132;-118.018;2023-04-26T11:26:21;99990.53;;;13.41;83.61
50368;BME280;36281;34.132;-118.018;2023-04-26T11:28:52;99995.50;;;13.37;83.48
50368;BME280;36281;34.132;-118.018;2023-04-26T11:31:21;99997.81;;;13.34;83.17
50368;BME280;36281;34.132;-118.018;2023-04-26T11:33:51;99999.66;;;13.33;82.98
50368;BME280;36281;34.132;-118.018;2023-04-26T11:36:21;100002.75;;;13.30;82.99
50368;BME280;36281;34.132;-118.018;2023-04-26T11:38:52;99996.94;;;13.22;82.85
50368;BME280;36281;34.132;-118.018;2023-04-26T11:41:22;99994.50;;;13.20;83.20
50368;BME280;36281;34.132;-118.018;2023-04-26T11:43:52;100003.81;;;13.11;83.88
50368;BME280;36281;34.132;-118.018;2023-04-26T11:46:21;99999.78;;;13.08;83.86
50368;BME280;36281;34.132;-118.018;2023-04-26T11:48:52;100001.81;;;13.06;84.09
50368;BME280;36281;34.132;-118.018;2023-04-26T11:51:23;100001.63;;;13.08;83.92
50368;BME280;36281;34.132;-118.018;2023-04-26T11:53:55;99999.84;;;13.02;83.98
50368;BME280;36281;34.132;-118.018;2023-04-26T11:56:29;99998.78;;;13.03;83.88
50368;BME280;36281;34.132;-118.018;2023-04-26T11:58:58;99993.84;;;13.06;84.34
50368;BME280;36281;34.132;-118.018;2023-04-26T12:01:28;99994.06;;;13.05;84.63
50368;BME280;36281;34.132;-118.018;2023-04-26T12:03:58;99999.50;;;12.98;84.40
50368;BME280;36281;34.132;-118.018;2023-04-26T12:06:42;99997.63;;;12.99;84.98
50368;BME280;36281;34.132;-118.018;2023-04-26T12:09:11;99984.22;;;12.93;84.94
50368;BME280;36281;34.132;-118.018;2023-04-26T12:11:41;99996.38;;;13.01;85.03
50368;BME280;36281;34.132;-118.018;2023-04-26T12:14:15;99999.25;;;13.00;84.64
50368;BME280;36281;34.132;-118.018;2023-04-26T12:16:45;100001.31;;;12.98;84.64
50368;BME280;36281;34.132;-118.018;2023-04-26T12:19:15;100000.31;;;12.99;84.75
50368;BME280;36281;34.132;-118.018;2023-04-26T12:21:46;99997.84;;;12.97;84.70
50368;BME280;36281;34.132;-118.018;2023-04-26T12:24:24;99992.75;;;12.96;84.74
50368;BME280;36281;34.132;-118.018;2023-04-26T12:26:54;99999.22;;;12.88;84.30
50368;BME280;36281;34.132;-118.018;2023-04-26T12:29:23;99994.56;;;12.83;84.38
50368;BME280;36281;34.132;-118.018;2023-04-26T12:31:52;99993.94;;;12.81;84.41
50368;BME280;36281;34.132;-118.018;2023-04-26T12:34:22;99982.38;;;12.76;84.51
50368;BME280;36281;34.132;-118.018;2023-04-26T12:36:52;99991.91;;;12.83;84.01
50368;BME280;36281;34.132;-118.018;2023-04-26T12:39:22;99994.75;;;12.82;84.38
50368;BME280;36281;34.132;-118.018;2023-04-26T12:41:51;99988.88;;;12.80;84.76
50368;BME280;36281;34.132;-118.018;2023-04-26T12:44:20;99986.66;;;12.77;84.77
50368;BME280;36281;34.132;-118.018;2023-04-26T12:46:49;99988.97;;;12.73;84.81